sensor_id;sensor_type;location;lat;lon;timestamp;P1;durP1;ratioP1;P2;durP2;ratioP2
10007;SDS011;5043;41.766;26.204;2023-11-19T00:00:24;2.35;;;1.13;;
10007;SDS011;5043;41.766;26.204;2023-11-19T00:02:50;1.37;;;0.90;;
10007;SDS011;5043;41.766;26.204;2023-11-19T00:05:15;1.17;;;1.00;;
10007;SDS011;5043;41.766;26.204;2023-11-19T00:07:41;1.13;;;0.98;;
10007;SDS011;5043;41.766;26.204;2023-11-19T00:10:11;1.77;;;1.13;;
10007;SDS011;5043;41.766;26.204;2023-11-19T00:12:39;1.13;;;0.90;;
10007;SDS011;5043;41.766;26.204;2023-11-19T00:15:06;1.02;;;0.93;;
10007;SDS011;5043;41.766;26.204;2023-11-19T00:17:36;2.77;;;1.10;;
10007;SDS011;5043;41.766;26.204;2023-11-19T00:20:06;3.20;;;0.90;;
10007;SDS011;5043;41.766;26.204;2023-11-19T00:22:32;0.77;;;0.77;;
10007;SDS011;5043;41.766;26.204;2023-11-19T00:24:58;1.00;;;0.90;;
10007;SDS011;5043;41.766;26.204;2023-11-19T00:27:24;0.88;;;0.85;;
10007;SDS011;5043;41.766;26.204;2023-11-19T00:29:50;2.15;;;0.73;;
10007;SDS011;5043;41.766;26.204;2023-11-19T00:32:15;1.23;;;0.85;;
10007;SDS011;5043;41.766;26.204;2023-11-19T00:34:43;1.10;;;0.80;;
10007;SDS011;5043;41.766;26.204;2023-11-19T00:37:09;2.47;;;1.03;;
10007;SDS011;5043;41.766;26.204;2023-11-19T00:39:35;3.78;;;1.17;;
10007;SDS011;5043;41.766;26.204;2023-11-19T00:42:00;2.30;;;0.80;;
10007;SDS011;5043;41.766;26.204;2023-11-19T00:44:25;1.00;;;0.80;;
10007;SDS011;5043;41.766;26.204;2023-11-19T00:46:51;0.90;;;0.90;;
10007;SDS011;5043;41.766;26.204;2023-11-19T00:49:16;0.77;;;0.70;;
10007;SDS011;5043;41.766;26.204;2023-11-19T00:51:42;2.10;;;1.27;;
10007;SDS011;5043;41.766;26.204;2023-11-19T00:54:07;6.30;;;0.93;;
10007;SDS011;5043;41.766;26.204;2023-11-19T00:56:32;9.73;;;0.77;;
10007;SDS011;5043;41.766;26.204;2023-11-19T00:58:58;1.52;;;1.10;;
10007;SDS011;5043;41.766;26.204;2023-11-19T01:01:25;3.42;;;0.80;;
10007;SDS011;5043;41.766;26.204;2023-11-19T01:03:51;0.70;;;0.70;;
10007;SDS011;5043;41.766;26.204;2023-11-19T01:06:26;0.73;;;0.68;;
10007;SDS011;5043;41.766;26.204;2023-11-19T01:08:52;1.30;;;1.00;;
10007;SDS011;5043;41.766;26.204;2023-11-19T01:11:21;2.17;;;0.55;;
10007;SDS011;5043;41.766;26.204;2023-11-19T01:13:47;1.98;;;1.10;;
10007;SDS011;5043;41.766;26.204;2023-11-19T01:16:13;2.40;;;1.08;;
10007;SDS011;5043;41.766;26.204;2023-11-19T01:18:39;1.23;;;0.63;;
10007;SDS011;5043;41.766;26.204;2023-11-19T01:21:04;1.00;;;0.80;;
10007;SDS011;5043;41.766;26.204;2023-11-19T01:23:30;5.57;;;1.27;;
10007;SDS011;5043;41.766;26.204;2023-11-19T01:25:56;1.80;;;0.80;;
10007;SDS011;5043;41.766;26.204;2023-11-19T01:28:21;0.60;;;0.60;;
10007;SDS011;5043;41.766;26.204;2023-11-19T01:30:47;0.57;;;0.57;;
10007;SDS011;5043;41.766;26.204;2023-11-19T01:33:15;1.00;;;0.70;;
10007;SDS011;5043;41.766;26.204;2023-11-19T01:35:41;1.00;;;0.73;;
10007;SDS011;5043;41.766;26.204;2023-11-19T01:38:06;1.35;;;0.68;;
10007;SDS011;5043;41.766;26.204;2023-11-19T01:40:33;2.85;;;0.47;;
10007;SDS011;5043;41.766;26.204;2023-11-19T01:42:59;1.40;;;0.60;;
10007;SDS011;5043;41.766;26.204;2023-11-19T01:45:28;0.60;;;0.50;;
10007;SDS011;5043;41.766;26.204;2023-11-19T01:47:58;0.95;;;0.47;;
10007;SDS011;5043;41.766;26.204;2023-11-19T01:50:28;0.55;;;0.50;;
10007;SDS011;5043;41.766;26.204;2023-11-19T01:52:55;0.77;;;0.43;;
10007;SDS011;5043;41.766;26.204;2023-11-19T01:55:25;0.47;;;0.40;;
10007;SDS011;5043;41.766;26.204;2023-11-19T01:57:53;2.70;;;0.80;;
10007;SDS011;5043;41.766;26.204;2023-11-19T02:00:22;1.30;;;0.82;;
10007;SDS011;5043;41.766;26.204;2023-11-19T02:02:49;0.55;;;0.55;;
10007;SDS011;5043;41.766;26.204;2023-11-19T02:05:17;0.37;;;0.37;;
10007;SDS011;5043;41.766;26.204;2023-11-19T02:07:42;0.40;;;0.40;;
10007;SDS011;5043;41.766;26.204;2023-11-19T02:10:08;0.70;;;0.55;;
10007;SDS011;5043;41.766;26.204;2023-11-19T02:12:38;0.63;;;0.63;;
10007;SDS011;5043;41.766;26.204;2023-11-19T02:15:08;2.17;;;0.63;;
10007;SDS011;5043;41.766;26.204;2023-11-19T02:17:34;0.40;;;0.40;;
10007;SDS011;5043;41.766;26.204;2023-11-19T02:20:00;0.50;;;0.43;;
10007;SDS011;5043;41.766;26.204;2023-11-19T02:22:25;0.40;;;0.40;;
10007;SDS011;5043;41.766;26.204;2023-11-19T02:24:51;0.43;;;0.43;;
10007;SDS011;5043;41.766;26.204;2023-11-19T02:30:05;0.30;;;0.30;;
10007;SDS011;5043;41.766;26.204;2023-11-19T02:32:33;0.40;;;0.40;;
10007;SDS011;5043;41.766;26.204;2023-11-19T02:35:00;2.28;;;0.35;;
10007;SDS011;5043;41.766;26.204;2023-11-19T02:37:26;0.67;;;0.67;;
10007;SDS011;5043;41.766;26.204;2023-11-19T02:39:53;0.88;;;0.50;;
10007;SDS011;5043;41.766;26.204;2023-11-19T02:42:18;1.33;;;0.50;;
10007;SDS011;5043;41.766;26.204;2023-11-19T02:44:44;0.50;;;0.50;;
10007;SDS011;5043;41.766;26.204;2023-11-19T02:47:10;0.40;;;0.40;;
10007;SDS011;5043;41.766;26.204;2023-11-19T02:49:36;0.50;;;0.50;;
10007;SDS011;5043;41.766;26.204;2023-11-19T02:52:02;3.23;;;0.50;;
10007;SDS011;5043;41.766;26.204;2023-11-19T02:54:30;0.50;;;0.50;;
10007;SDS011;5043;41.766;26.204;2023-11-19T02:56:59;0.47;;;0.47;;
10007;SDS011;5043;41.766;26.204;2023-11-19T02:59:26;0.50;;;0.50;;
10007;SDS011;5043;41.766;26.204;2023-11-19T03:01:53;0.50;;;0.50;;
10007;SDS011;5043;41.766;26.204;2023-11-19T03:04:19;1.08;;;0.80;;
10007;SDS011;5043;41.766;26.204;2023-11-19T03:06:48;0.50;;;0.50;;
10007;SDS011;5043;41.766;26.204;2023-11-19T03:09:14;0.57;;;0.57;;
10007;SDS011;5043;41.766;26.204;2023-11-19T03:11:39;0.50;;;0.50;;
10007;SDS011;5043;41.766;26.204;2023-11-19T03:14:04;0.60;;;0.60;;
10007;SDS011;5043;41.766;26.204;2023-11-19T03:16:30;1.47;;;0.90;;
10007;SDS011;5043;41.766;26.204;2023-11-19T03:18:55;0.60;;;0.60;;
10007;SDS011;5043;41.766;26.204;2023-11-19T03:21:32;1.30;;;0.80;;
10007;SDS011;5043;41.766;26.204;2023-11-19T03:23:57;0.53;;;0.53;;
10007;SDS011;5043;41.766;26.204;2023-11-19T03:26:26;1.17;;;1.00;;
10007;SDS011;5043;41.766;26.204;2023-11-19T03:28:52;2.33;;;0.87;;
10007;SDS011;5043;41.766;26.204;2023-11-19T03:31:18;1.85;;;0.70;;
10007;SDS011;5043;41.766;26.204;2023-11-19T03:33:44;0.73;;;0.73;;
10007;SDS011;5043;41.766;26.204;2023-11-19T03:36:10;1.33;;;0.93;;
10007;SDS011;5043;41.766;26.204;2023-11-19T03:38:35;1.40;;;0.80;;
10007;SDS011;5043;41.766;26.204;2023-11-19T03:41:01;0.63;;;0.63;;
10007;SDS011;5043;41.766;26.204;2023-11-19T03:43:35;0.68;;;0.68;;
10007;SDS011;5043;41.766;26.204;2023-11-19T03:46:01;0.98;;;0.82;;
10007;SDS011;5043;41.766;26.204;2023-11-19T03:48:27;0.75;;;0.75;;
10007;SDS011;5043;41.766;26.204;2023-11-19T03:50:52;0.60;;;0.60;;
10007;SDS011;5043;41.766;26.204;2023-11-19T03:53:18;0.80;;;0.80;;
10007;SDS011;5043;41.766;26.204;2023-11-19T03:55:43;0.57;;;0.57;;
10007;SDS011;5043;41.766;26.204;2023-11-19T03:58:09;0.80;;;0.80;;
10007;SDS011;5043;41.766;26.204;2023-11-19T04:00:34;0.68;;;0.68;;
10007;SDS011;5043;41.766;26.204;2023-11-19T04:03:00;0.60;;;0.60;;
10007;SDS011;5043;41.766;26.204;2023-11-19T04:05:25;1.00;;;0.95;;
10007;SDS011;5043;41.766;26.204;2023-11-19T04:07:51;0.60;;;0.60;;
10007;SDS011;5043;41.766;26.204;2023-11-19T04:10:16;0.70;;;0.70;;
10007;SDS011;5043;41.766;26.204;2023-11-19T04:12:42;1.03;;;0.93;;
10007;SDS011;5043;41.766;26.204;2023-11-19T04:15:08;0.60;;;0.60;;
10007;SDS011;5043;41.766;26.204;2023-11-19T04:17:34;3.33;;;0.80;;
10007;SDS011;5043;41.766;26.204;2023-11-19T04:19:59;1.45;;;1.35;;
10007;SDS011;5043;41.766;26.204;2023-11-19T04:22:25;4.72;;;1.27;;
10007;SDS011;5043;41.766;26.204;2023-11-19T04:24:51;2.20;;;0.67;;
10007;SDS011;5043;41.766;26.204;2023-11-19T04:27:16;2.27;;;0.90;;
10007;SDS011;5043;41.766;26.204;2023-11-19T04:29:42;0.47;;;0.40;;
10007;SDS011;5043;41.766;26.204;2023-11-19T04:32:07;0.60;;;0.60;;
10007;SDS011;5043;41.766;26.204;2023-11-19T04:34:33;0.70;;;0.70;;
10007;SDS011;5043;41.766;26.204;2023-11-19T04:36:59;0.90;;;0.90;;
10007;SDS011;5043;41.766;26.204;2023-11-19T04:39:28;0.97;;;0.97;;
10007;SDS011;5043;41.766;26.204;2023-11-19T04:41:54;1.70;;;1.10;;
10007;SDS011;5043;41.766;26.204;2023-11-19T04:44:19;2.50;;;1.42;;
10007;SDS011;5043;41.766;26.204;2023-11-19T04:46:45;1.20;;;1.10;;
10007;SDS011;5043;41.766;26.204;2023-11-19T04:49:12;1.27;;;0.97;;
10007;SDS011;5043;41.766;26.204;2023-11-19T04:51:43;2.67;;;0.80;;
10007;SDS011;5043;41.766;26.204;2023-11-19T04:54:09;1.07;;;0.90;;
10007;SDS011;5043;41.766;26.204;2023-11-19T04:56:38;5.30;;;1.00;;
10007;SDS011;5043;41.766;26.204;2023-11-19T04:59:04;1.05;;;0.95;;
10007;SDS011;5043;41.766;26.204;2023-11-19T05:01:34;1.40;;;1.13;;
10007;SDS011;5043;41.766;26.204;2023-11-19T05:04:00;0.90;;;0.80;;
10007;SDS011;5043;41.766;26.204;2023-11-19T05:06:27;0.63;;;0.63;;
10007;SDS011;5043;41.766;26.204;2023-11-19T05:08:56;1.80;;;0.90;;
10007;SDS011;5043;41.766;26.204;2023-11-19T05:11:22;0.97;;;0.87;;
10007;SDS011;5043;41.766;26.204;2023-11-19T05:13:47;0.85;;;0.60;;
10007;SDS011;5043;41.766;26.204;2023-11-19T05:16:13;1.20;;;0.77;;
10007;SDS011;5043;41.766;26.204;2023-11-19T05:18:42;3.63;;;1.35;;
10007;SDS011;5043;41.766;26.204;2023-11-19T05:21:07;1.07;;;0.70;;
10007;SDS011;5043;41.766;26.204;2023-11-19T05:23:33;1.17;;;0.93;;
10007;SDS011;5043;41.766;26.204;2023-11-19T05:26:00;0.90;;;0.80;;
10007;SDS011;5043;41.766;26.204;2023-11-19T05:28:26;1.23;;;1.03;;
10007;SDS011;5043;41.766;26.204;2023-11-19T05:30:58;0.98;;;0.88;;
10007;SDS011;5043;41.766;26.204;2023-11-19T05:36:54;0.73;;;0.70;;
10007;SDS011;5043;41.766;26.204;2023-11-19T05:39:30;1.80;;;1.48;;
10007;SDS011;5043;41.766;26.204;2023-11-19T05:44:53;1.60;;;1.40;;
10007;SDS011;5043;41.766;26.204;2023-11-19T05:47:18;2.03;;;1.30;;
10007;SDS011;5043;41.766;26.204;2023-11-19T05:49:44;1.50;;;1.33;;
10007;SDS011;5043;41.766;26.204;2023-11-19T05:52:13;2.83;;;1.30;;
10007;SDS011;5043;41.766;26.204;2023-11-19T05:54:38;1.43;;;1.30;;
10007;SDS011;5043;41.766;26.204;2023-11-19T06:00:02;2.97;;;1.93;;
10007;SDS011;5043;41.766;26.204;2023-11-19T06:05:49;5.33;;;2.73;;
10007;SDS011;5043;41.766;26.204;2023-11-19T06:08:15;1.33;;;1.10;;
10007;SDS011;5043;41.766;26.204;2023-11-19T06:10:49;0.95;;;0.88;;
10007;SDS011;5043;41.766;26.204;2023-11-19T06:13:16;0.83;;;0.83;;
10007;SDS011;5043;41.766;26.204;2023-11-19T06:15:42;1.10;;;1.00;;
10007;SDS011;5043;41.766;26.204;2023-11-19T06:21:25;0.93;;;0.93;;
10007;SDS011;5043;41.766;26.204;2023-11-19T06:23:51;1.23;;;1.13;;
10007;SDS011;5043;41.766;26.204;2023-11-19T06:26:18;2.30;;;1.00;;
10007;SDS011;5043;41.766;26.204;2023-11-19T06:31:48;2.90;;;1.27;;
10007;SDS011;5043;41.766;26.204;2023-11-19T06:34:14;1.52;;;1.00;;
10007;SDS011;5043;41.766;26.204;2023-11-19T06:36:40;0.90;;;0.90;;
10007;SDS011;5043;41.766;26.204;2023-11-19T06:39:05;1.50;;;1.08;;
10007;SDS011;5043;41.766;26.204;2023-11-19T06:44:32;1.00;;;0.98;;
10007;SDS011;5043;41.766;26.204;2023-11-19T06:46:58;1.00;;;0.90;;
10007;SDS011;5043;41.766;26.204;2023-11-19T06:49:23;1.52;;;1.20;;
10007;SDS011;5043;41.766;26.204;2023-11-19T06:51:49;3.25;;;1.20;;
10007;SDS011;5043;41.766;26.204;2023-11-19T06:54:15;1.58;;;1.20;;
10007;SDS011;5043;41.766;26.204;2023-11-19T06:56:41;1.23;;;1.15;;
10007;SDS011;5043;41.766;26.204;2023-11-19T06:59:07;3.67;;;2.25;;
10007;SDS011;5043;41.766;26.204;2023-11-19T07:01:35;1.83;;;1.73;;
10007;SDS011;5043;41.766;26.204;2023-11-19T07:04:01;3.10;;;2.40;;
10007;SDS011;5043;41.766;26.204;2023-11-19T07:06:58;1.77;;;1.65;;
10007;SDS011;5043;41.766;26.204;2023-11-19T07:09:27;2.75;;;2.33;;
10007;SDS011;5043;41.766;26.204;2023-11-19T07:11:53;3.30;;;2.65;;
10007;SDS011;5043;41.766;26.204;2023-11-19T07:14:29;2.05;;;1.85;;
10007;SDS011;5043;41.766;26.204;2023-11-19T07:19:52;5.47;;;2.47;;
10007;SDS011;5043;41.766;26.204;2023-11-19T07:22:20;4.13;;;2.60;;
10007;SDS011;5043;41.766;26.204;2023-11-19T07:24:46;2.50;;;1.85;;
10007;SDS011;5043;41.766;26.204;2023-11-19T07:30:13;2.90;;;2.22;;
10007;SDS011;5043;41.766;26.204;2023-11-19T07:35:36;5.40;;;3.22;;
10007;SDS011;5043;41.766;26.204;2023-11-19T07:38:05;2.55;;;2.08;;
10007;SDS011;5043;41.766;26.204;2023-11-19T07:40:30;3.08;;;2.47;;
10007;SDS011;5043;41.766;26.204;2023-11-19T07:42:56;3.15;;;2.10;;
10007;SDS011;5043;41.766;26.204;2023-11-19T07:45:21;4.00;;;2.47;;
10007;SDS011;5043;41.766;26.204;2023-11-19T07:47:47;3.97;;;2.47;;
10007;SDS011;5043;41.766;26.204;2023-11-19T07:50:12;3.50;;;2.50;;
10007;SDS011;5043;41.766;26.204;2023-11-19T07:52:39;4.90;;;3.28;;
10007;SDS011;5043;41.766;26.204;2023-11-19T07:55:05;3.92;;;2.92;;
10007;SDS011;5043;41.766;26.204;2023-11-19T07:57:30;3.20;;;2.50;;
10007;SDS011;5043;41.766;26.204;2023-11-19T07:59:56;7.15;;;4.63;;
10007;SDS011;5043;41.766;26.204;2023-11-19T08:02:22;14.15;;;7.72;;
10007;SDS011;5043;41.766;26.204;2023-11-19T08:04:49;12.13;;;8.52;;
10007;SDS011;5043;41.766;26.204;2023-11-19T08:07:16;3.47;;;2.58;;
10007;SDS011;5043;41.766;26.204;2023-11-19T08:09:45;3.72;;;2.65;;
10007;SDS011;5043;41.766;26.204;2023-11-19T08:12:11;3.30;;;2.90;;
10007;SDS011;5043;41.766;26.204;2023-11-19T08:14:39;5.22;;;3.70;;
10007;SDS011;5043;41.766;26.204;2023-11-19T08:17:04;3.70;;;3.13;;
10007;SDS011;5043;41.766;26.204;2023-11-19T08:19:30;8.93;;;5.25;;
10007;SDS011;5043;41.766;26.204;2023-11-19T08:21:55;3.83;;;2.72;;
10007;SDS011;5043;41.766;26.204;2023-11-19T08:24:20;12.23;;;4.75;;
10007;SDS011;5043;41.766;26.204;2023-11-19T08:26:46;6.97;;;5.32;;
10007;SDS011;5043;41.766;26.204;2023-11-19T08:29:11;5.38;;;3.35;;
10007;SDS011;5043;41.766;26.204;2023-11-19T08:31:38;14.40;;;8.80;;
10007;SDS011;5043;41.766;26.204;2023-11-19T08:34:04;7.20;;;2.50;;
10007;SDS011;5043;41.766;26.204;2023-11-19T08:36:29;4.53;;;2.08;;
10007;SDS011;5043;41.766;26.204;2023-11-19T08:38:56;2.70;;;1.80;;
10007;SDS011;5043;41.766;26.204;2023-11-19T08:41:22;2.75;;;2.05;;
10007;SDS011;5043;41.766;26.204;2023-11-19T08:43:47;2.47;;;2.20;;
10007;SDS011;5043;41.766;26.204;2023-11-19T08:46:13;2.00;;;1.90;;
10007;SDS011;5043;41.766;26.204;2023-11-19T08:48:38;2.47;;;2.28;;
10007;SDS011;5043;41.766;26.204;2023-11-19T08:51:04;2.35;;;2.15;;
10007;SDS011;5043;41.766;26.204;2023-11-19T08:53:30;1.70;;;1.60;;
10007;SDS011;5043;41.766;26.204;2023-11-19T08:56:02;2.53;;;2.25;;
10007;SDS011;5043;41.766;26.204;2023-11-19T08:58:28;2.83;;;2.28;;
10007;SDS011;5043;41.766;26.204;2023-11-19T09:04:03;3.35;;;2.10;;
10007;SDS011;5043;41.766;26.204;2023-11-19T09:06:29;3.20;;;2.03;;
10007;SDS011;5043;41.766;26.204;2023-11-19T09:12:24;1.55;;;1.45;;
10007;SDS011;5043;41.766;26.204;2023-11-19T09:17:49;4.05;;;1.67;;
10007;SDS011;5043;41.766;26.204;2023-11-19T09:23:12;3.08;;;2.35;;
10007;SDS011;5043;41.766;26.204;2023-11-19T09:25:38;2.88;;;1.90;;
10007;SDS011;5043;41.766;26.204;2023-11-19T09:28:06;5.15;;;3.17;;
10007;SDS011;5043;41.766;26.204;2023-11-19T09:30:44;3.08;;;1.50;;
10007;SDS011;5043;41.766;26.204;2023-11-19T09:33:20;3.80;;;2.10;;
10007;SDS011;5043;41.766;26.204;2023-11-19T09:35:46;1.90;;;1.50;;
10007;SDS011;5043;41.766;26.204;2023-11-19T09:38:23;6.47;;;2.35;;
10007;SDS011;5043;41.766;26.204;2023-11-19T09:40:59;1.75;;;1.42;;
10007;SDS011;5043;41.766;26.204;2023-11-19T09:43:27;4.97;;;1.60;;
10007;SDS011;5043;41.766;26.204;2023-11-19T09:45:53;2.58;;;1.70;;
10007;SDS011;5043;41.766;26.204;2023-11-19T09:51:25;2.22;;;1.50;;
10007;SDS011;5043;41.766;26.204;2023-11-19T09:53:51;3.85;;;2.03;;
10007;SDS011;5043;41.766;26.204;2023-11-19T09:56:17;1.88;;;1.75;;
10007;SDS011;5043;41.766;26.204;2023-11-19T09:59:03;2.50;;;2.30;;
10007;SDS011;5043;41.766;26.204;2023-11-19T10:01:28;1.38;;;1.33;;
10007;SDS011;5043;41.766;26.204;2023-11-19T10:04:07;1.65;;;1.55;;
10007;SDS011;5043;41.766;26.204;2023-11-19T10:06:45;1.85;;;1.75;;
10007;SDS011;5043;41.766;26.204;2023-11-19T10:09:12;2.28;;;1.75;;
10007;SDS011;5043;41.766;26.204;2023-11-19T10:11:47;4.82;;;1.83;;
10007;SDS011;5043;41.766;26.204;2023-11-19T10:14:14;2.35;;;1.83;;
10007;SDS011;5043;41.766;26.204;2023-11-19T10:16:40;2.40;;;1.73;;
10007;SDS011;5043;41.766;26.204;2023-11-19T10:22:12;2.47;;;2.10;;
10007;SDS011;5043;41.766;26.204;2023-11-19T10:24:41;2.92;;;2.47;;
10007;SDS011;5043;41.766;26.204;2023-11-19T10:27:17;7.40;;;1.75;;
10007;SDS011;5043;41.766;26.204;2023-11-19T10:29:46;3.85;;;1.42;;
10007;SDS011;5043;41.766;26.204;2023-11-19T10:32:12;2.92;;;2.50;;
10007;SDS011;5043;41.766;26.204;2023-11-19T10:38:14;5.70;;;2.33;;
10007;SDS011;5043;41.766;26.204;2023-11-19T10:40:51;7.30;;;4.53;;
10007;SDS011;5043;41.766;26.204;2023-11-19T10:43:17;2.55;;;2.15;;
10007;SDS011;5043;41.766;26.204;2023-11-19T10:49:04;2.05;;;1.90;;
10007;SDS011;5043;41.766;26.204;2023-11-19T10:51:36;1.80;;;1.70;;
10007;SDS011;5043;41.766;26.204;2023-11-19T11:04:38;2.22;;;1.92;;
10007;SDS011;5043;41.766;26.204;2023-11-19T11:37:39;1.85;;;1.75;;
10007;SDS011;5043;41.766;26.204;2023-11-19T11:40:16;1.63;;;1.52;;
10007;SDS011;5043;41.766;26.204;2023-11-19T11:42:46;1.73;;;1.55;;
10007;SDS011;5043;41.766;26.204;2023-11-19T11:45:37;1.55;;;1.45;;
10007;SDS011;5043;41.766;26.204;2023-11-19T11:51:29;3.17;;;1.90;;
10007;SDS011;5043;41.766;26.204;2023-11-19T11:54:09;2.92;;;2.30;;
10007;SDS011;5043;41.766;26.204;2023-11-19T11:56:38;2.20;;;1.73;;
10007;SDS011;5043;41.766;26.204;2023-11-19T11:59:37;6.03;;;2.40;;
10007;SDS011;5043;41.766;26.204;2023-11-19T12:02:03;1.98;;;1.63;;
10007;SDS011;5043;41.766;26.204;2023-11-19T12:04:29;2.17;;;1.63;;
10007;SDS011;5043;41.766;26.204;2023-11-19T12:07:07;2.00;;;1.80;;
10007;SDS011;5043;41.766;26.204;2023-11-19T12:09:37;2.72;;;1.85;;
10007;SDS011;5043;41.766;26.204;2023-11-19T12:19:58;2.40;;;1.80;;
10007;SDS011;5043;41.766;26.204;2023-11-19T12:22:37;2.13;;;1.90;;
10007;SDS011;5043;41.766;26.204;2023-11-19T12:25:04;1.80;;;1.70;;
10007;SDS011;5043;41.766;26.204;2023-11-19T12:27:31;2.05;;;1.90;;
10007;SDS011;5043;41.766;26.204;2023-11-19T12:29:59;1.63;;;1.52;;
10007;SDS011;5043;41.766;26.204;2023-11-19T12:32:24;1.50;;;1.40;;
10007;SDS011;5043;41.766;26.204;2023-11-19T12:34:50;1.00;;;1.00;;
10007;SDS011;5043;41.766;26.204;2023-11-19T12:37:15;1.77;;;1.50;;
10007;SDS011;5043;41.766;26.204;2023-11-19T12:39:41;8.23;;;1.75;;
10007;SDS011;5043;41.766;26.204;2023-11-19T12:42:06;3.20;;;2.40;;
10007;SDS011;5043;41.766;26.204;2023-11-19T12:44:32;1.80;;;1.50;;
10007;SDS011;5043;41.766;26.204;2023-11-19T12:51:01;1.52;;;1.40;;
10007;SDS011;5043;41.766;26.204;2023-11-19T12:53:27;1.77;;;1.67;;
10007;SDS011;5043;41.766;26.204;2023-11-19T12:55:54;1.70;;;1.33;;
10007;SDS011;5043;41.766;26.204;2023-11-19T12:58:35;1.80;;;1.70;;
10007;SDS011;5043;41.766;26.204;2023-11-19T13:01:05;2.13;;;1.80;;
10007;SDS011;5043;41.766;26.204;2023-11-19T13:03:33;1.95;;;1.85;;
10007;SDS011;5043;41.766;26.204;2023-11-19T13:06:03;1.42;;;1.33;;
10007;SDS011;5043;41.766;26.204;2023-11-19T13:08:29;1.50;;;1.40;;
10007;SDS011;5043;41.766;26.204;2023-11-19T13:11:02;1.73;;;1.50;;
10007;SDS011;5043;41.766;26.204;2023-11-19T13:13:28;2.35;;;1.80;;
10007;SDS011;5043;41.766;26.204;2023-11-19T13:16:01;1.73;;;1.63;;
10007;SDS011;5043;41.766;26.204;2023-11-19T13:18:28;2.67;;;2.35;;
10007;SDS011;5043;41.766;26.204;2023-11-19T13:20:53;7.93;;;2.40;;
10007;SDS011;5043;41.766;26.204;2023-11-19T13:23:22;2.63;;;1.92;;
10007;SDS011;5043;41.766;26.204;2023-11-19T13:25:48;2.10;;;1.90;;
10007;SDS011;5043;41.766;26.204;2023-11-19T13:28:14;2.10;;;1.83;;
10007;SDS011;5043;41.766;26.204;2023-11-19T13:30:39;1.50;;;1.40;;
10007;SDS011;5043;41.766;26.204;2023-11-19T13:33:05;2.03;;;1.55;;
10007;SDS011;5043;41.766;26.204;2023-11-19T13:35:30;2.60;;;2.00;;
10007;SDS011;5043;41.766;26.204;2023-11-19T13:37:55;2.38;;;2.00;;
10007;SDS011;5043;41.766;26.204;2023-11-19T13:40:21;7.35;;;2.35;;
10007;SDS011;5043;41.766;26.204;2023-11-19T13:42:47;3.38;;;2.13;;
10007;SDS011;5043;41.766;26.204;2023-11-19T13:45:13;3.45;;;1.90;;
10007;SDS011;5043;41.766;26.204;2023-11-19T13:47:43;2.97;;;2.33;;
10007;SDS011;5043;41.766;26.204;2023-11-19T13:50:10;4.57;;;2.83;;
10007;SDS011;5043;41.766;26.204;2023-11-19T13:52:37;6.07;;;4.82;;
10007;SDS011;5043;41.766;26.204;2023-11-19T13:55:07;10.32;;;6.47;;
10007;SDS011;5043;41.766;26.204;2023-11-19T13:57:37;5.13;;;3.85;;
10007;SDS011;5043;41.766;26.204;2023-11-19T14:00:04;3.38;;;2.80;;
10007;SDS011;5043;41.766;26.204;2023-11-19T14:02:32;2.33;;;1.92;;
10007;SDS011;5043;41.766;26.204;2023-11-19T14:04:58;5.05;;;2.65;;
10007;SDS011;5043;41.766;26.204;2023-11-19T14:07:23;4.95;;;2.20;;
10007;SDS011;5043;41.766;26.204;2023-11-19T14:09:49;4.20;;;2.75;;
10007;SDS011;5043;41.766;26.204;2023-11-19T14:12:15;2.38;;;2.00;;
10007;SDS011;5043;41.766;26.204;2023-11-19T14:14:41;4.60;;;3.35;;
10007;SDS011;5043;41.766;26.204;2023-11-19T14:17:07;4.78;;;2.65;;
10007;SDS011;5043;41.766;26.204;2023-11-19T14:19:33;3.28;;;2.80;;
10007;SDS011;5043;41.766;26.204;2023-11-19T14:21:58;3.40;;;2.63;;
10007;SDS011;5043;41.766;26.204;2023-11-19T14:24:24;2.47;;;2.28;;
10007;SDS011;5043;41.766;26.204;2023-11-19T14:26:50;2.30;;;2.10;;
10007;SDS011;5043;41.766;26.204;2023-11-19T14:29:16;2.58;;;2.38;;
10007;SDS011;5043;41.766;26.204;2023-11-19T14:31:42;4.93;;;3.63;;
10007;SDS011;5043;41.766;26.204;2023-11-19T14:34:08;4.90;;;3.20;;
10007;SDS011;5043;41.766;26.204;2023-11-19T14:36:33;2.17;;;2.08;;
10007;SDS011;5043;41.766;26.204;2023-11-19T14:39:00;4.53;;;1.98;;
10007;SDS011;5043;41.766;26.204;2023-11-19T14:41:25;4.22;;;3.38;;
10007;SDS011;5043;41.766;26.204;2023-11-19T14:43:51;3.28;;;2.55;;
10007;SDS011;5043;41.766;26.204;2023-11-19T14:46:16;2.13;;;1.95;;
10007;SDS011;5043;41.766;26.204;2023-11-19T14:48:42;3.00;;;2.70;;
10007;SDS011;5043;41.766;26.204;2023-11-19T14:51:07;2.67;;;2.38;;
10007;SDS011;5043;41.766;26.204;2023-11-19T14:53:33;2.25;;;2.05;;
10007;SDS011;5043;41.766;26.204;2023-11-19T14:55:59;5.45;;;3.13;;
10007;SDS011;5043;41.766;26.204;2023-11-19T14:58:25;3.08;;;2.40;;
10007;SDS011;5043;41.766;26.204;2023-11-19T15:00:51;8.70;;;3.83;;
10007;SDS011;5043;41.766;26.204;2023-11-19T15:03:17;6.50;;;4.28;;
10007;SDS011;5043;41.766;26.204;2023-11-19T15:05:47;7.07;;;4.78;;
10007;SDS011;5043;41.766;26.204;2023-11-19T15:08:12;9.52;;;6.05;;
10007;SDS011;5043;41.766;26.204;2023-11-19T15:10:38;8.88;;;5.80;;
10007;SDS011;5043;41.766;26.204;2023-11-19T15:13:04;4.03;;;3.22;;
10007;SDS011;5043;41.766;26.204;2023-11-19T15:15:29;3.78;;;3.25;;
10007;SDS011;5043;41.766;26.204;2023-11-19T15:17:55;4.20;;;3.42;;
10007;SDS011;5043;41.766;26.204;2023-11-19T15:20:20;10.77;;;7.13;;
10007;SDS011;5043;41.766;26.204;2023-11-19T15:22:46;8.68;;;4.28;;
10007;SDS011;5043;41.766;26.204;2023-11-19T15:25:12;6.43;;;4.65;;
10007;SDS011;5043;41.766;26.204;2023-11-19T15:27:38;6.13;;;4.22;;
10007;SDS011;5043;41.766;26.204;2023-11-19T15:30:03;8.18;;;4.47;;
10007;SDS011;5043;41.766;26.204;2023-11-19T15:32:30;5.55;;;3.63;;
10007;SDS011;5043;41.766;26.204;2023-11-19T15:34:57;28.63;;;12.00;;
10007;SDS011;5043;41.766;26.204;2023-11-19T15:37:25;85.40;;;37.05;;
10007;SDS011;5043;41.766;26.204;2023-11-19T15:39:50;76.43;;;33.88;;
10007;SDS011;5043;41.766;26.204;2023-11-19T15:42:16;65.15;;;29.27;;
10007;SDS011;5043;41.766;26.204;2023-11-19T15:44:42;48.33;;;23.40;;
10007;SDS011;5043;41.766;26.204;2023-11-19T15:47:08;49.05;;;26.58;;
10007;SDS011;5043;41.766;26.204;2023-11-19T15:49:34;36.35;;;22.70;;
10007;SDS011;5043;41.766;26.204;2023-11-19T15:52:01;26.38;;;17.50;;
10007;SDS011;5043;41.766;26.204;2023-11-19T15:54:30;21.75;;;15.65;;
10007;SDS011;5043;41.766;26.204;2023-11-19T15:56:55;20.02;;;14.60;;
10007;SDS011;5043;41.766;26.204;2023-11-19T15:59:21;19.40;;;13.43;;
10007;SDS011;5043;41.766;26.204;2023-11-19T16:01:46;20.88;;;14.45;;
10007;SDS011;5043;41.766;26.204;2023-11-19T16:04:12;19.67;;;13.38;;
10007;SDS011;5043;41.766;26.204;2023-11-19T16:06:37;17.20;;;12.57;;
10007;SDS011;5043;41.766;26.204;2023-11-19T16:09:03;16.60;;;11.07;;
10007;SDS011;5043;41.766;26.204;2023-11-19T16:11:28;24.20;;;19.17;;
10007;SDS011;5043;41.766;26.204;2023-11-19T16:13:54;28.90;;;19.38;;
10007;SDS011;5043;41.766;26.204;2023-11-19T16:16:20;26.08;;;16.35;;
10007;SDS011;5043;41.766;26.204;2023-11-19T16:18:45;35.53;;;20.05;;
10007;SDS011;5043;41.766;26.204;2023-11-19T16:21:11;32.47;;;19.85;;
10007;SDS011;5043;41.766;26.204;2023-11-19T16:23:37;37.30;;;20.98;;
10007;SDS011;5043;41.766;26.204;2023-11-19T16:26:05;29.42;;;16.63;;
10007;SDS011;5043;41.766;26.204;2023-11-19T16:28:31;26.25;;;15.35;;
10007;SDS011;5043;41.766;26.204;2023-11-19T16:30:57;25.98;;;16.80;;
10007;SDS011;5043;41.766;26.204;2023-11-19T16:33:22;25.40;;;14.43;;
10007;SDS011;5043;41.766;26.204;2023-11-19T16:35:48;22.73;;;14.80;;
10007;SDS011;5043;41.766;26.204;2023-11-19T16:38:13;20.67;;;12.82;;
10007;SDS011;5043;41.766;26.204;2023-11-19T16:40:39;17.23;;;11.20;;